createdAt,value
2018-08-11T00:02:33.665Z,102425.50
2018-08-11T00:05:36.957Z,102425.90
2018-08-11T00:08:40.255Z,102427.83
2018-08-11T00:11:44.043Z,102428.05
2018-08-11T00:14:47.598Z,102428.02
2018-08-11T00:17:50.831Z,102424.95
2018-08-11T00:20:54.060Z,102424.89
2018-08-11T00:23:57.341Z,102421.92
2018-08-11T00:27:00.651Z,102417.15
2018-08-11T00:30:05.050Z,102420.76
2018-08-11T00:33:08.380Z,102418.23
2018-08-11T00:36:11.706Z,102424.82
2018-08-11T00:39:14.976Z,102433.95
2018-08-11T00:42:21.653Z,102432.97
2018-08-11T00:45:25.312Z,102431.92
2018-08-11T00:48:28.519Z,102438.49
2018-08-11T00:51:31.816Z,102440.13
2018-08-11T00:54:35.164Z,102438.52
2018-08-11T00:57:38.748Z,102439.97
2018-08-11T01:00:42.031Z,102444.13
2018-08-11T01:03:45.984Z,102440.83
2018-08-11T01:06:49.287Z,102436.90
2018-08-11T01:09:52.560Z,102439.71
2018-08-11T01:12:55.834Z,102441.22
2018-08-11T01:15:59.079Z,102441.02
2018-08-11T01:19:02.447Z,102438.91
2018-08-11T01:22:05.727Z,102440.53
2018-08-11T01:25:09.745Z,102446.20
2018-08-11T01:28:13.027Z,102444.46
2018-08-11T01:31:16.919Z,102442.74
2018-08-11T01:34:20.210Z,102443.82
2018-08-11T01:37:23.452Z,102445.02
2018-08-11T01:40:26.783Z,102440.48
2018-08-11T01:43:30.032Z,102442.15
2018-08-11T01:46:33.361Z,102442.97
2018-08-11T01:49:36.654Z,102443.46
2018-08-11T01:52:41.158Z,102444.28
2018-08-11T01:55:44.921Z,102442.87
2018-08-11T01:58:48.227Z,102441.37
2018-08-11T02:01:51.563Z,102437.92
2018-08-11T02:04:54.876Z,102438.29
2018-08-11T02:07:58.177Z,102439.61
2018-08-11T02:11:01.459Z,102434.30
2018-08-11T02:14:04.802Z,102431.74
2018-08-11T02:17:08.070Z,102434.89
2018-08-11T02:20:13.338Z,102433.94
2018-08-11T02:23:16.697Z,102435.85
2018-08-11T02:26:19.996Z,102437.08
2018-08-11T02:29:23.266Z,102436.51
2018-08-11T02:32:26.503Z,102437.18
2018-08-11T02:35:29.802Z,102437.09
2018-08-11T02:38:33.095Z,102434.64
2018-08-11T02:41:36.440Z,102435.94
2018-08-11T02:44:39.591Z,102440.54
2018-08-11T02:47:42.891Z,102440.05
2018-08-11T02:50:47.268Z,102430.97
2018-08-11T02:53:50.688Z,102433.06
2018-08-11T02:56:53.987Z,102432.66
2018-08-11T02:59:57.172Z,102435.65
2018-08-11T03:03:00.530Z,102439.66
2018-08-11T03:06:04.103Z,102441.58
2018-08-11T03:09:08.228Z,102441.70
2018-08-11T03:12:11.633Z,102443.75
2018-08-11T03:15:17.022Z,102440.19
2018-08-11T03:18:20.270Z,102442.13
2018-08-11T03:21:23.560Z,102449.27
2018-08-11T03:24:27.213Z,102450.89
2018-08-11T03:27:30.467Z,102455.74
2018-08-11T03:30:33.986Z,102456.96
2018-08-11T03:33:37.236Z,102453.04
2018-08-11T03:36:40.541Z,102457.77
2018-08-11T03:39:44.159Z,102459.60
2018-08-11T03:42:47.443Z,102457.96
2018-08-11T03:45:50.732Z,102463.14
2018-08-11T03:48:54.035Z,102458.48
2018-08-11T03:51:57.381Z,102458.87
2018-08-11T03:55:00.616Z,102463.55
2018-08-11T03:58:03.818Z,102468.76
2018-08-11T04:01:07.158Z,102471.28
2018-08-11T04:04:10.432Z,102476.51
2018-08-11T04:07:14.200Z,102481.09
2018-08-11T04:10:17.418Z,102479.00
2018-08-11T04:13:20.622Z,102481.74
2018-08-11T04:16:23.945Z,102483.32
2018-08-11T04:19:27.250Z,102485.12
2018-08-11T04:22:30.535Z,102489.45
2018-08-11T04:25:33.851Z,102494.81
2018-08-11T04:28:37.141Z,102490.80
2018-08-11T04:31:40.380Z,102498.75
2018-08-11T04:34:44.198Z,102498.90
2018-08-11T04:37:47.444Z,102503.97
2018-08-11T04:40:50.739Z,102506.76
2018-08-11T04:43:54.039Z,102505.24
2018-08-11T04:46:57.295Z,102510.72
2018-08-11T04:50:00.499Z,102508.50
2018-08-11T04:53:03.808Z,102511.24
2018-08-11T04:56:07.303Z,102515.16
2018-08-11T04:59:10.500Z,102514.48
2018-08-11T05:02:14.356Z,102523.28
2018-08-11T05:05:18.132Z,102520.94
2018-08-11T05:08:21.299Z,102518.66
2018-08-11T05:11:24.735Z,102520.56
2018-08-11T05:14:28.053Z,102526.38
2018-08-11T05:17:31.286Z,102526.09
2018-08-11T05:20:34.642Z,102520.78
2018-08-11T05:23:37.896Z,102522.82
2018-08-11T05:26:41.223Z,102521.01
2018-08-11T05:29:45.075Z,102524.62
2018-08-11T05:32:48.323Z,102526.04
2018-08-11T05:35:51.528Z,102524.32
2018-08-11T05:38:54.850Z,102527.17
2018-08-11T05:41:58.148Z,102534.22
2018-08-11T05:45:01.341Z,102542.14
2018-08-11T05:48:04.612Z,102543.25
2018-08-11T05:51:08.082Z,102545.11
2018-08-11T05:54:11.430Z,102538.81
2018-08-11T05:57:14.675Z,102546.27
2018-08-11T06:00:17.859Z,102547.43
2018-08-11T06:03:21.184Z,102542.46
2018-08-11T06:06:24.553Z,102542.52
2018-08-11T06:09:27.773Z,102543.76
2018-08-11T06:12:31.078Z,102549.11
2018-08-11T06:15:34.200Z,102549.39
2018-08-11T06:18:37.456Z,102544.20
2018-08-11T06:21:40.783Z,102550.59
2018-08-11T06:24:44.022Z,102558.05
2018-08-11T06:27:47.196Z,102555.71
2018-08-11T06:30:50.359Z,102556.37
2018-08-11T06:33:53.484Z,102550.09
2018-08-11T06:36:56.780Z,102547.65
2018-08-11T06:40:00.794Z,102545.96
2018-08-11T06:43:04.021Z,102551.74
2018-08-11T06:46:07.228Z,102553.38
2018-08-11T06:49:10.501Z,102552.20
2018-08-11T06:52:13.880Z,102554.88
2018-08-11T06:55:17.185Z,102544.42
2018-08-11T06:58:20.469Z,102551.39
2018-08-11T07:01:23.694Z,102553.73
2018-08-11T07:04:26.911Z,102553.50
2018-08-11T07:07:30.768Z,102560.23
2018-08-11T07:10:33.943Z,102561.40
2018-08-11T07:13:37.196Z,102563.77
2018-08-11T07:16:40.468Z,102556.95
2018-08-11T07:19:43.651Z,102558.56
2018-08-11T07:22:46.852Z,102560.38
2018-08-11T07:25:50.011Z,102562.31
2018-08-11T07:28:53.236Z,102559.04
2018-08-11T07:31:56.511Z,102564.45
2018-08-11T07:35:00.664Z,102565.01
2018-08-11T07:38:03.904Z,102557.87
2018-08-11T07:41:07.125Z,102563.53
2018-08-11T07:44:10.320Z,102562.46
2018-08-11T07:47:13.618Z,102552.14
2018-08-11T07:50:16.941Z,102551.47
2018-08-11T07:53:20.312Z,102555.42
2018-08-11T07:56:23.599Z,102551.49
2018-08-11T07:59:26.912Z,102553.92
2018-08-11T08:02:30.709Z,102554.67
2018-08-11T08:05:33.999Z,102552.40
2018-08-11T08:08:37.179Z,102549.37
2018-08-11T08:11:40.759Z,102550.08
2018-08-11T08:14:43.995Z,102548.97
2018-08-11T08:17:47.179Z,102540.91
2018-08-11T08:20:50.498Z,102539.22
2018-08-11T08:23:53.616Z,102534.42
2018-08-11T08:26:56.891Z,102528.73
2018-08-11T08:30:00.109Z,102528.11
2018-08-11T08:33:03.386Z,102527.18
2018-08-11T08:36:06.600Z,102530.18
2018-08-11T08:39:11.400Z,102527.01
2018-08-11T08:42:14.591Z,102529.56
2018-08-11T08:45:18.501Z,102529.03
2018-08-11T08:48:21.691Z,102524.08
2018-08-11T08:51:24.956Z,102524.99
2018-08-11T08:54:28.112Z,102522.19
2018-08-11T08:57:31.289Z,102524.85
2018-08-11T09:00:36.170Z,102519.83
2018-08-11T09:03:39.387Z,102522.41
2018-08-11T09:06:42.598Z,102524.18
2018-08-11T09:09:45.977Z,102515.80
2018-08-11T09:12:49.211Z,102519.66
2018-08-11T09:15:54.507Z,102516.69
2018-08-11T09:18:57.993Z,102515.95
2018-08-11T09:22:01.275Z,102516.98
2018-08-11T09:25:05.387Z,102524.22
2018-08-11T09:28:08.630Z,102519.97
2018-08-11T09:31:12.066Z,102511.46
2018-08-11T09:34:15.355Z,102508.90
2018-08-11T09:37:18.579Z,102516.44
2018-08-11T09:40:21.875Z,102512.61
2018-08-11T09:43:25.172Z,102509.80
2018-08-11T09:46:28.478Z,102501.55
2018-08-11T09:49:31.770Z,102499.76
2018-08-11T09:52:35.365Z,102497.72
2018-08-11T09:55:38.961Z,102501.66
2018-08-11T10:01:13.854Z,102496.31
2018-08-11T10:04:17.130Z,102495.29
2018-08-11T10:10:49.116Z,102492.94
2018-08-11T10:13:52.519Z,102485.30
2018-08-11T10:16:55.852Z,102475.61
2018-08-11T10:19:59.035Z,102484.51
2018-08-11T10:23:02.351Z,102473.33
2018-08-11T10:26:05.728Z,102478.28
2018-08-11T10:29:09.004Z,102478.90
2018-08-11T10:32:12.336Z,102476.40
2018-08-11T10:35:15.579Z,102475.95
2018-08-11T10:38:18.916Z,102477.56
2018-08-11T10:41:22.167Z,102470.26
2018-08-11T10:44:25.513Z,102469.43
2018-08-11T10:47:28.814Z,102463.29
2018-08-11T10:50:32.828Z,102466.21
2018-08-11T10:53:36.155Z,102465.38
2018-08-11T10:56:39.385Z,102467.10
2018-08-11T10:59:42.720Z,102455.95
2018-08-11T11:02:46.991Z,102448.05
2018-08-11T11:05:50.319Z,102454.23
2018-08-11T11:08:54.641Z,102446.38
2018-08-11T11:11:57.832Z,102444.66
2018-08-11T11:15:01.166Z,102439.01
2018-08-11T11:18:05.499Z,102445.74
2018-08-11T11:21:08.788Z,102443.92
2018-08-11T11:24:12.252Z,102435.74
2018-08-11T11:27:15.655Z,102437.63
2018-08-11T11:30:18.983Z,102433.85
2018-08-11T11:33:22.272Z,102429.91
2018-08-11T11:36:25.678Z,102432.31
2018-08-11T11:39:29.004Z,102429.66
2018-08-11T11:42:32.378Z,102427.23
2018-08-11T11:45:35.642Z,102406.61
2018-08-11T11:48:38.971Z,102407.93
2018-08-11T11:51:42.250Z,102414.67
2018-08-11T11:54:45.547Z,102400.08
2018-08-11T11:57:48.823Z,102401.54
2018-08-11T12:00:52.159Z,102404.86
2018-08-11T12:03:55.406Z,102402.71
2018-08-11T12:06:58.711Z,102404.09
2018-08-11T12:10:02.040Z,102404.32
2018-08-11T12:13:05.669Z,102402.80
2018-08-11T12:16:08.801Z,102393.19
2018-08-11T12:19:12.114Z,102385.88
2018-08-11T12:22:15.294Z,102397.10
2018-08-11T12:25:18.619Z,102395.60
2018-08-11T12:28:21.953Z,102392.79
2018-08-11T12:31:25.199Z,102382.95
2018-08-11T12:34:29.681Z,102370.58
2018-08-11T12:37:32.933Z,102378.18
2018-08-11T12:40:36.287Z,102380.50
2018-08-11T12:43:39.503Z,102374.17
2018-08-11T12:46:42.769Z,102366.16
2018-08-11T12:49:46.174Z,102366.87
2018-08-11T12:52:49.438Z,102367.54
2018-08-11T12:55:52.654Z,102366.91
2018-08-11T12:58:56.150Z,102364.97
2018-08-11T13:02:00.481Z,102365.22
2018-08-11T13:05:04.718Z,102366.62
2018-08-11T13:08:08.998Z,102360.30
2018-08-11T13:11:12.527Z,102360.60
2018-08-11T13:14:15.812Z,102356.54
2018-08-11T13:17:19.093Z,102349.86
2018-08-11T13:20:22.366Z,102360.67
2018-08-11T13:23:25.675Z,102358.94
2018-08-11T13:26:29.028Z,102348.08
2018-08-11T13:29:32.914Z,102356.64
2018-08-11T13:32:36.192Z,102346.42
2018-08-11T13:35:40.063Z,102351.92
2018-08-11T13:38:43.373Z,102354.17
2018-08-11T13:41:48.964Z,102338.81
2018-08-11T13:44:52.163Z,102340.60
2018-08-11T13:47:55.423Z,102347.56
2018-08-11T13:50:58.703Z,102334.14
2018-08-11T13:54:02.255Z,102337.76
2018-08-11T13:57:05.683Z,102333.20
2018-08-11T14:00:10.046Z,102339.72
2018-08-11T14:03:13.255Z,102333.64
2018-08-11T14:06:16.573Z,102339.35
2018-08-11T14:09:20.362Z,102331.56
2018-08-11T14:12:23.578Z,102332.41
2018-08-11T14:15:26.882Z,102330.73
2018-08-11T14:18:30.207Z,102326.39
2018-08-11T14:21:33.468Z,102331.33
2018-08-11T14:24:36.804Z,102326.22
2018-08-11T14:27:40.069Z,102327.78
2018-08-11T14:30:43.348Z,102330.22
2018-08-11T14:33:46.681Z,102315.91
2018-08-11T14:36:50.662Z,102310.46
2018-08-11T14:39:53.971Z,102316.56
2018-08-11T14:42:57.295Z,102315.27
2018-08-11T14:46:00.722Z,102312.95
2018-08-11T14:49:04.304Z,102311.55
2018-08-11T14:52:07.579Z,102306.69
2018-08-11T14:55:10.839Z,102305.16
2018-08-11T14:58:14.654Z,102301.42
2018-08-11T15:01:18.814Z,102295.96
2018-08-11T15:04:22.463Z,102298.59
2018-08-11T15:07:25.855Z,102298.04
2018-08-11T15:10:29.188Z,102300.03
2018-08-11T15:13:32.559Z,102295.26
2018-08-11T15:16:36.311Z,102288.06
2018-08-11T15:19:39.596Z,102287.32
2018-08-11T15:22:43.752Z,102284.83
2018-08-11T15:25:47.039Z,102278.28
2018-08-11T15:28:50.291Z,102274.74
2018-08-11T15:31:53.616Z,102269.98
2018-08-11T15:34:56.900Z,102261.65
2018-08-11T15:38:00.198Z,102277.01
2018-08-11T15:41:03.483Z,102272.09
2018-08-11T15:44:07.054Z,102273.94
2018-08-11T15:47:10.515Z,102272.22
2018-08-11T15:50:14.796Z,102272.82
2018-08-11T15:53:18.093Z,102269.60
2018-08-11T15:56:22.486Z,102267.59
2018-08-11T15:59:25.807Z,102267.32
2018-08-11T16:02:29.053Z,102263.97
2018-08-11T16:05:32.359Z,102265.44
2018-08-11T16:08:35.673Z,102262.20
2018-08-11T16:11:38.965Z,102262.43
2018-08-11T16:14:42.318Z,102254.48
2018-08-11T16:17:46.895Z,102253.90
2018-08-11T16:20:51.402Z,102266.11
2018-08-11T16:23:54.696Z,102266.39
2018-08-11T16:26:58.023Z,102268.85
2018-08-11T16:30:01.159Z,102270.12
2018-08-11T16:33:04.416Z,102272.31
2018-08-11T16:36:07.782Z,102275.85
2018-08-11T16:39:11.115Z,102272.28
2018-08-11T16:42:14.499Z,102273.79
2018-08-11T16:45:17.777Z,102272.98
2018-08-11T16:48:21.955Z,102270.69
2018-08-11T16:51:25.267Z,102270.70
2018-08-11T16:54:28.698Z,102272.41
2018-08-11T16:57:31.995Z,102271.63
2018-08-11T17:00:35.136Z,102278.55
2018-08-11T17:03:38.381Z,102279.29
2018-08-11T17:06:42.379Z,102281.66
2018-08-11T17:09:46.434Z,102287.26
2018-08-11T17:12:49.817Z,102284.47
2018-08-11T17:15:53.113Z,102289.33
2018-08-11T17:18:56.398Z,102289.07
2018-08-11T17:21:59.803Z,102286.10
2018-08-11T17:25:03.181Z,102280.37
2018-08-11T17:28:06.425Z,102279.73
2018-08-11T17:31:09.721Z,102284.24
2018-08-11T17:34:12.995Z,102284.33
2018-08-11T17:37:17.209Z,102284.03
2018-08-11T17:40:20.515Z,102283.57
2018-08-11T17:43:23.808Z,102283.51
2018-08-11T17:46:27.203Z,102279.62
2018-08-11T17:49:30.561Z,102276.52
2018-08-11T17:52:33.873Z,102281.70
2018-08-11T17:55:37.115Z,102274.59
2018-08-11T17:58:47.288Z,102274.90
2018-08-11T18:01:50.659Z,102274.27
2018-08-11T18:04:53.984Z,102278.19
2018-08-11T18:07:57.252Z,102280.25
2018-08-11T18:11:00.438Z,102282.58
2018-08-11T18:14:03.891Z,102285.91
2018-08-11T18:17:07.327Z,102281.46
2018-08-11T18:20:10.664Z,102281.30
2018-08-11T18:23:13.953Z,102283.79
2018-08-11T18:26:17.177Z,102284.64
2018-08-11T18:29:20.439Z,102287.43
2018-08-11T18:32:23.574Z,102286.75
2018-08-11T18:35:27.771Z,102283.44
2018-08-11T18:38:31.172Z,102291.54
2018-08-11T18:41:34.459Z,102294.50
2018-08-11T18:44:37.756Z,102297.19
2018-08-11T18:47:42.160Z,102295.56
2018-08-11T18:50:45.453Z,102293.37
2018-08-11T18:53:48.791Z,102292.84
2018-08-11T18:56:52.176Z,102294.87
2018-08-11T18:59:55.577Z,102297.27
2018-08-11T19:02:58.860Z,102301.71
2018-08-11T19:06:01.994Z,102301.59
2018-08-11T19:09:09.861Z,102304.38
2018-08-11T19:12:14.085Z,102309.38
2018-08-11T19:15:17.831Z,102312.65
2018-08-11T19:18:21.134Z,102313.58
2018-08-11T19:21:24.363Z,102312.22
2018-08-11T19:24:27.705Z,102318.20
2018-08-11T19:27:31.536Z,102318.40
2018-08-11T19:30:34.780Z,102322.15
2018-08-11T19:33:38.154Z,102325.22
2018-08-11T19:36:41.639Z,102320.79
2018-08-11T19:39:45.012Z,102322.81
2018-08-11T19:42:48.303Z,102322.03
2018-08-11T19:45:51.683Z,102323.49
2018-08-11T19:48:54.988Z,102320.37
2018-08-11T19:51:58.299Z,102321.34
2018-08-11T19:55:01.689Z,102322.35
2018-08-11T19:58:04.914Z,102322.24
2018-08-11T20:01:09.039Z,102328.35
2018-08-11T20:04:14.348Z,102331.41
2018-08-11T20:07:17.679Z,102331.34
2018-08-11T20:10:20.965Z,102331.43
2018-08-11T20:13:24.341Z,102338.77
2018-08-11T20:16:27.564Z,102334.06
2018-08-11T20:19:30.957Z,102329.08
2018-08-11T20:22:34.528Z,102330.98
2018-08-11T20:25:37.970Z,102328.69
2018-08-11T20:28:42.036Z,102334.14
2018-08-11T20:31:45.349Z,102333.93
2018-08-11T20:34:48.629Z,102332.40
2018-08-11T20:37:52.076Z,102334.95
2018-08-11T20:40:55.692Z,102329.82
2018-08-11T20:43:59.010Z,102335.99
2018-08-11T20:47:02.342Z,102338.91
2018-08-11T20:50:06.335Z,102336.77
2018-08-11T20:53:10.119Z,102333.92
2018-08-11T20:56:13.589Z,102339.69
2018-08-11T20:59:16.943Z,102342.17
2018-08-11T21:02:20.144Z,102342.05
2018-08-11T21:05:23.712Z,102341.90
2018-08-11T21:08:27.019Z,102344.43
2018-08-11T21:11:30.283Z,102339.86
2018-08-11T21:14:33.672Z,102339.21
2018-08-11T21:17:39.507Z,102342.48
2018-08-11T21:20:42.719Z,102344.35
2018-08-11T21:23:46.186Z,102344.40
2018-08-11T21:26:49.678Z,102339.20
2018-08-11T21:29:53.216Z,102341.89
2018-08-11T21:32:56.542Z,102343.48
2018-08-11T21:35:59.855Z,102340.14
2018-08-11T21:39:03.263Z,102337.59
2018-08-11T21:42:06.753Z,102339.60
2018-08-11T21:45:10.359Z,102341.87
2018-08-11T21:48:13.625Z,102337.35
2018-08-11T21:51:16.935Z,102342.04
2018-08-11T21:54:20.216Z,102340.36
2018-08-11T21:57:23.394Z,102335.52
2018-08-11T22:00:29.414Z,102340.75
2018-08-11T22:03:32.775Z,102337.99
2018-08-11T22:06:35.965Z,102340.02
2018-08-11T22:09:40.039Z,102340.70
2018-08-11T22:12:43.312Z,102345.30
2018-08-11T22:15:46.691Z,102338.50
2018-08-11T22:18:49.994Z,102335.85
2018-08-11T22:21:53.298Z,102334.04
2018-08-11T22:24:56.590Z,102333.77
2018-08-11T22:27:59.918Z,102333.63
2018-08-11T22:31:03.129Z,102328.25
2018-08-11T22:34:07.495Z,102329.94
2018-08-11T22:37:12.318Z,102333.71
2018-08-11T22:40:15.804Z,102326.29
2018-08-11T22:43:19.449Z,102330.34
2018-08-11T22:46:22.729Z,102328.35
2018-08-11T22:49:26.021Z,102328.59
2018-08-11T22:52:29.227Z,102332.34
2018-08-11T22:55:32.495Z,102331.72
2018-08-11T22:58:35.783Z,102330.41
2018-08-11T23:01:40.270Z,102329.45
2018-08-11T23:04:44.790Z,102325.19
2018-08-11T23:07:48.041Z,102324.39
2018-08-11T23:10:51.353Z,102322.21
2018-08-11T23:13:55.198Z,102322.42
2018-08-11T23:16:58.447Z,102315.49
2018-08-11T23:20:01.688Z,102318.59
2018-08-11T23:23:05.031Z,102319.34
2018-08-11T23:26:08.251Z,102313.15
2018-08-11T23:29:11.794Z,102313.97
2018-08-11T23:32:15.036Z,102311.17
2018-08-11T23:35:18.252Z,102312.34
2018-08-11T23:38:21.526Z,102308.02
2018-08-11T23:41:25.021Z,102303.86
2018-08-11T23:44:28.230Z,102300.26
2018-08-11T23:47:31.871Z,102301.77
2018-08-11T23:50:35.154Z,102297.75
2018-08-11T23:53:38.379Z,102299.64
2018-08-11T23:56:41.847Z,102293.60
2018-08-11T23:59:45.195Z,102297.04
